createdAt,value
2018-04-14T00:01:17.740Z,9.77
2018-04-14T00:03:45.316Z,9.80
2018-04-14T00:06:12.872Z,10.67
2018-04-14T00:08:40.434Z,9.77
2018-04-14T00:11:08.744Z,10.30
2018-04-14T00:13:36.315Z,10.43
2018-04-14T00:16:03.867Z,9.67
2018-04-14T00:18:32.210Z,10.67
2018-04-14T00:20:59.761Z,10.07
2018-04-14T00:23:27.330Z,9.40
2018-04-14T00:25:54.888Z,10.20
2018-04-14T00:28:22.453Z,9.80
2018-04-14T00:30:49.999Z,9.40
2018-04-14T00:33:17.600Z,8.50
2018-04-14T00:35:45.150Z,8.97
2018-04-14T00:38:13.475Z,8.27
2018-04-14T00:40:41.023Z,7.77
2018-04-14T00:43:09.355Z,8.87
2018-04-14T00:45:37.667Z,7.47
2018-04-14T00:48:05.219Z,6.93
2018-04-14T00:50:32.778Z,6.63
2018-04-14T00:53:12.192Z,7.53
2018-04-14T00:55:40.503Z,6.70
2018-04-14T00:58:08.052Z,7.33
2018-04-14T01:00:36.467Z,7.80
2018-04-14T01:03:04.026Z,8.10
2018-04-14T01:05:31.586Z,8.17
2018-04-14T01:07:59.903Z,8.53
2018-04-14T01:10:27.476Z,9.50
2018-04-14T01:12:55.028Z,8.70
2018-04-14T01:15:22.598Z,8.87
2018-04-14T01:17:50.920Z,9.43
2018-04-14T01:20:18.491Z,9.67
2018-04-14T01:22:46.047Z,10.23
2018-04-14T01:25:13.631Z,9.43
2018-04-14T01:27:41.191Z,11.77
2018-04-14T01:30:08.766Z,11.63
2018-04-14T01:32:36.319Z,11.93
2018-04-14T01:35:03.895Z,12.90
2018-04-14T01:37:31.450Z,13.77
2018-04-14T01:39:59.850Z,14.87
2018-04-14T01:42:27.405Z,14.43
2018-04-14T01:44:55.732Z,17.13
2018-04-14T01:47:23.312Z,17.90
2018-04-14T01:49:50.859Z,16.37
2018-04-14T01:52:18.431Z,17.00
2018-04-14T01:54:45.990Z,17.47
2018-04-14T01:57:14.331Z,18.93
2018-04-14T01:59:41.884Z,18.83
2018-04-14T02:02:09.459Z,19.80
2018-04-14T02:04:37.007Z,19.57
2018-04-14T02:07:04.580Z,18.83
2018-04-14T02:09:32.140Z,20.93
2018-04-14T02:12:00.483Z,20.97
2018-04-14T02:14:28.047Z,21.50
2018-04-14T02:16:55.621Z,20.83
2018-04-14T02:19:23.175Z,19.90
2018-04-14T02:21:50.756Z,20.97
2018-04-14T02:24:18.310Z,20.80
2018-04-14T02:26:45.884Z,20.93
2018-04-14T02:29:13.439Z,21.87
2018-04-14T02:31:41.019Z,22.63
2018-04-14T02:34:08.578Z,23.80
2018-04-14T02:36:36.165Z,24.57
2018-04-14T02:39:03.728Z,24.40
2018-04-14T02:41:31.304Z,25.87
2018-04-14T02:43:58.881Z,27.93
2018-04-14T02:46:26.443Z,27.47
2018-04-14T02:48:54.028Z,26.90
2018-04-14T02:51:21.583Z,28.37
2018-04-14T02:53:49.924Z,28.40
2018-04-14T02:56:17.489Z,27.20
2018-04-14T02:58:45.827Z,28.50
2018-04-14T03:01:14.152Z,27.10
2018-04-14T03:03:41.728Z,26.30
2018-04-14T03:06:09.302Z,28.30
2018-04-14T03:08:36.881Z,27.57
2018-04-14T03:11:04.452Z,27.63
2018-04-14T03:13:32.031Z,30.30
2018-04-14T03:16:00.357Z,31.20
2018-04-14T03:18:28.695Z,29.40
2018-04-14T03:20:56.255Z,32.00
2018-04-14T03:23:23.822Z,30.50
2018-04-14T03:25:51.376Z,27.70
2018-04-14T03:28:19.715Z,29.07
2018-04-14T03:30:47.276Z,28.33
2018-04-14T03:33:14.854Z,28.30
2018-04-14T03:35:42.408Z,29.47
2018-04-14T03:38:10.004Z,28.57
2018-04-14T03:40:38.329Z,27.70
2018-04-14T03:43:06.643Z,28.23
2018-04-14T03:45:34.217Z,29.50
2018-04-14T03:48:01.776Z,30.17
2018-04-14T03:50:29.353Z,28.60
2018-04-14T03:52:56.916Z,29.50
2018-04-14T03:55:24.524Z,29.63
2018-04-14T03:57:52.082Z,29.37
2018-04-14T04:00:19.698Z,30.67
2018-04-14T04:02:48.004Z,30.00
2018-04-14T04:05:16.348Z,33.47
2018-04-14T04:07:43.911Z,31.80
2018-04-14T04:10:11.485Z,31.20
2018-04-14T04:12:39.044Z,33.67
2018-04-14T04:15:06.616Z,31.47
2018-04-14T04:17:34.181Z,32.57
2018-04-14T04:20:13.630Z,32.50
2018-04-14T04:22:52.947Z,32.17
2018-04-14T04:25:24.332Z,32.50
2018-04-14T04:27:52.648Z,32.17
2018-04-14T04:30:20.237Z,31.57
2018-04-14T04:32:47.796Z,32.30
2018-04-14T04:35:15.356Z,32.87
2018-04-14T04:37:42.928Z,31.47
2018-04-14T04:40:10.483Z,32.80
2018-04-14T04:42:38.058Z,31.67
2018-04-14T04:45:05.616Z,30.60
2018-04-14T04:47:33.991Z,30.10
2018-04-14T04:50:01.543Z,31.70
2018-04-14T04:52:29.116Z,32.23
2018-04-14T04:54:56.671Z,32.10
2018-04-14T04:57:24.242Z,30.57
2018-04-14T04:59:51.811Z,29.10
2018-04-14T05:02:19.391Z,30.47
2018-04-14T05:04:46.951Z,29.87
2018-04-14T05:07:14.531Z,29.20
2018-04-14T05:09:42.088Z,29.20
2018-04-14T05:12:09.659Z,29.30
2018-04-14T05:14:37.219Z,29.67
2018-04-14T05:17:04.787Z,29.50
2018-04-14T05:19:32.352Z,30.87
2018-04-14T05:21:59.924Z,27.40
2018-04-14T05:24:27.484Z,29.30
2018-04-14T05:26:55.836Z,28.17
2018-04-14T05:29:23.401Z,27.87
2018-04-14T05:31:50.983Z,29.13
2018-04-14T05:34:18.574Z,28.13
2018-04-14T05:36:46.169Z,29.77
2018-04-14T05:39:14.489Z,29.20
2018-04-14T05:41:42.048Z,31.67
2018-04-14T05:44:09.633Z,30.50
2018-04-14T05:46:37.185Z,29.27
2018-04-14T05:49:04.756Z,29.53
2018-04-14T05:51:32.318Z,28.83
2018-04-14T05:54:00.655Z,27.90
2018-04-14T05:56:28.979Z,27.83
2018-04-14T05:58:57.319Z,24.40
2018-04-14T06:01:24.876Z,21.07
2018-04-14T06:03:52.451Z,21.83
2018-04-14T06:06:20.004Z,21.10
2018-04-14T06:08:47.588Z,17.00
2018-04-14T06:11:15.139Z,16.10
2018-04-14T06:13:43.491Z,17.00
2018-04-14T06:16:11.055Z,16.20
2018-04-14T06:18:38.629Z,15.27
2018-04-14T06:21:06.198Z,16.17
2018-04-14T06:23:33.780Z,17.13
2018-04-14T06:26:01.340Z,14.03
2018-04-14T06:28:28.935Z,13.90
2018-04-14T06:30:56.483Z,13.90
2018-04-14T06:33:24.062Z,11.67
2018-04-14T06:35:52.379Z,11.77
2018-04-14T06:38:20.717Z,13.53
2018-04-14T06:40:48.292Z,12.70
2018-04-14T06:43:15.864Z,14.50
2018-04-14T06:45:43.423Z,12.70
2018-04-14T06:48:10.975Z,14.97
2018-04-14T06:50:38.548Z,16.50
2018-04-14T06:53:06.108Z,17.27
2018-04-14T06:55:34.449Z,16.87
2018-04-14T06:58:02.008Z,20.03
2018-04-14T07:00:29.582Z,19.10
2018-04-14T07:02:57.140Z,21.37
2018-04-14T07:05:24.721Z,20.23
2018-04-14T07:07:52.279Z,19.60
2018-04-14T07:10:19.859Z,21.87
2018-04-14T07:12:47.419Z,19.87
2018-04-14T07:15:15.004Z,21.30
2018-04-14T07:17:42.567Z,19.10
2018-04-14T07:20:10.140Z,20.60
2018-04-14T07:22:37.696Z,21.97
2018-04-14T07:25:05.272Z,20.70
2018-04-14T07:27:32.830Z,21.47
2018-04-14T07:30:01.172Z,20.60
2018-04-14T07:32:28.784Z,20.97
2018-04-14T07:34:57.170Z,20.43
2018-04-14T07:37:25.505Z,20.73
2018-04-14T07:39:53.100Z,20.50
2018-04-14T07:42:21.130Z,20.93
2018-04-14T07:44:49.488Z,19.77
2018-04-14T07:47:17.044Z,20.97
2018-04-14T07:49:44.620Z,19.23
2018-04-14T07:52:12.196Z,19.83
2018-04-14T07:54:39.762Z,20.43
2018-04-14T07:57:07.337Z,20.40
2018-04-14T07:59:35.034Z,21.33
2018-04-14T08:02:03.407Z,20.47
2018-04-14T08:04:31.000Z,20.50
2018-04-14T08:07:00.091Z,23.60
2018-04-14T08:09:27.691Z,21.80
2018-04-14T08:11:56.067Z,22.40
2018-04-14T08:14:23.630Z,23.70
2018-04-14T08:16:51.991Z,21.53
2018-04-14T08:19:19.580Z,21.23
2018-04-14T08:21:47.169Z,20.90
2018-04-14T08:24:14.736Z,20.53
2018-04-14T08:26:42.308Z,22.10
2018-04-14T08:29:09.895Z,22.10
2018-04-14T08:31:38.251Z,24.23
2018-04-14T08:34:06.575Z,25.03
2018-04-14T08:36:34.925Z,24.97
2018-04-14T08:39:02.476Z,22.90
2018-04-14T08:41:30.097Z,24.00
2018-04-14T08:43:57.659Z,22.70
2018-04-14T08:46:25.232Z,21.80
2018-04-14T08:48:52.855Z,22.80
2018-04-14T08:51:20.420Z,20.73
2018-04-14T08:53:47.983Z,21.30
2018-04-14T08:56:15.634Z,20.97
2018-04-14T08:58:43.369Z,22.40
2018-04-14T09:01:10.940Z,23.10
2018-04-14T09:03:38.523Z,25.00
2018-04-14T09:06:06.081Z,25.50
2018-04-14T09:08:33.693Z,24.50
2018-04-14T09:11:01.256Z,23.57
2018-04-14T09:13:29.124Z,23.40
2018-04-14T09:15:56.693Z,23.60
2018-04-14T09:18:24.267Z,24.27
2018-04-14T09:20:51.818Z,21.63
2018-04-14T09:23:19.395Z,17.30
2018-04-14T09:25:46.953Z,20.53
2018-04-14T09:28:14.627Z,20.23
2018-04-14T09:30:42.248Z,19.23
2018-04-14T09:33:09.880Z,20.80
2018-04-14T09:35:37.460Z,20.77
2018-04-14T09:38:05.093Z,20.50
2018-04-14T09:40:33.558Z,22.57
2018-04-14T09:43:01.923Z,20.93
2018-04-14T09:45:29.480Z,19.73
2018-04-14T09:47:57.052Z,19.17
2018-04-14T09:50:24.619Z,18.70
2018-04-14T09:52:52.232Z,20.50
2018-04-14T09:55:20.043Z,19.53
2018-04-14T09:57:48.399Z,19.57
2018-04-14T10:00:21.662Z,19.90
2018-04-14T10:02:49.516Z,18.10
2018-04-14T10:05:17.833Z,14.73
2018-04-14T10:07:45.426Z,14.90
2018-04-14T10:10:13.022Z,16.23
2018-04-14T10:12:41.369Z,14.83
2018-04-14T10:15:09.072Z,16.10
2018-04-14T10:17:36.738Z,16.23
2018-04-14T10:20:04.329Z,16.10
2018-04-14T10:22:31.934Z,16.90
2018-04-14T10:25:00.411Z,19.03
2018-04-14T10:27:28.030Z,22.00
2018-04-14T10:29:55.689Z,23.60
2018-04-14T10:32:23.341Z,24.60
2018-04-14T10:34:50.933Z,25.73
2018-04-14T10:37:18.575Z,26.67
2018-04-14T10:39:46.164Z,28.07
2018-04-14T10:42:14.606Z,34.40
2018-04-14T10:44:42.203Z,34.23
2018-04-14T10:47:10.544Z,36.07
2018-04-14T10:49:38.187Z,36.17
2018-04-14T10:52:06.596Z,37.27
2018-04-14T10:54:34.289Z,38.83
2018-04-14T10:57:01.932Z,41.30
2018-04-14T10:59:30.311Z,43.43
2018-04-14T11:01:58.740Z,44.40
2018-04-14T11:04:26.388Z,45.67
2018-04-14T11:06:54.817Z,46.37
2018-04-14T11:09:22.643Z,48.37
2018-04-14T11:11:51.008Z,47.13
2018-04-14T11:14:18.620Z,45.57
2018-04-14T11:16:47.028Z,46.77
2018-04-14T11:19:17.551Z,47.47
2018-04-14T11:21:45.253Z,46.63
2018-04-14T11:24:12.825Z,48.80
2018-04-14T11:26:41.056Z,45.00
2018-04-14T11:29:08.645Z,48.20
2018-04-14T11:31:36.227Z,45.97
2018-04-14T11:34:04.594Z,43.17
2018-04-14T11:36:40.308Z,42.10
2018-04-14T11:39:07.984Z,38.63
2018-04-14T11:41:35.557Z,39.57
2018-04-14T11:44:03.115Z,38.50
2018-04-14T11:46:31.449Z,39.60
2018-04-14T11:48:59.009Z,39.17
2018-04-14T11:51:26.592Z,37.50
2018-04-14T11:53:54.165Z,35.43
2018-04-14T11:56:21.735Z,36.77
2018-04-14T11:58:49.294Z,35.93
2018-04-14T12:01:16.871Z,34.90
2018-04-14T12:03:44.490Z,37.00
2018-04-14T12:06:12.088Z,37.77
2018-04-14T12:08:39.652Z,38.90
2018-04-14T12:11:07.236Z,37.87
2018-04-14T12:13:34.787Z,38.80
2018-04-14T12:16:03.129Z,37.00
2018-04-14T12:18:30.691Z,41.70
2018-04-14T12:20:58.276Z,37.60
2018-04-14T12:23:25.831Z,41.57
2018-04-14T12:25:53.411Z,37.27
2018-04-14T12:28:20.961Z,38.53
2018-04-14T12:30:48.532Z,37.23
2018-04-14T12:33:16.090Z,39.50
2018-04-14T12:35:43.664Z,40.17
2018-04-14T12:38:11.227Z,40.27
2018-04-14T12:40:39.573Z,39.20
2018-04-14T12:43:07.132Z,40.00
2018-04-14T12:45:34.683Z,40.93
2018-04-14T12:48:02.261Z,41.87
2018-04-14T12:50:29.819Z,43.40
2018-04-14T12:52:57.427Z,41.97
2018-04-14T12:55:24.991Z,42.63
2018-04-14T12:57:52.571Z,42.67
2018-04-14T13:00:20.132Z,43.67
2018-04-14T13:02:47.717Z,42.87
2018-04-14T13:05:15.279Z,43.13
2018-04-14T13:07:42.862Z,44.50
2018-04-14T13:10:10.421Z,46.23
2018-04-14T13:12:38.000Z,45.57
2018-04-14T13:15:05.556Z,45.60
2018-04-14T13:17:33.142Z,46.70
2018-04-14T13:20:02.515Z,46.73
2018-04-14T13:22:34.122Z,47.10
2018-04-14T13:25:02.601Z,50.30
2018-04-14T13:27:30.203Z,47.53
2018-04-14T13:29:57.809Z,43.73
2018-04-14T13:32:26.192Z,47.23
2018-04-14T13:34:54.548Z,44.63
2018-04-14T13:37:22.131Z,46.57
2018-04-14T13:39:49.719Z,46.10
2018-04-14T13:42:17.302Z,47.33
2018-04-14T13:44:44.862Z,48.43
2018-04-14T13:47:12.482Z,44.93
2018-04-14T13:49:40.821Z,44.90
2018-04-14T13:52:09.175Z,47.53
2018-04-14T13:54:36.927Z,48.53
2018-04-14T13:57:04.543Z,50.27
2018-04-14T13:59:32.144Z,48.03
2018-04-14T14:01:59.704Z,47.07
2018-04-14T14:04:27.290Z,52.53
2018-04-14T14:06:54.884Z,53.87
2018-04-14T14:09:23.231Z,53.07
2018-04-14T14:11:50.834Z,52.30
2018-04-14T14:14:18.471Z,51.97
2018-04-14T14:16:46.032Z,52.10
2018-04-14T14:19:13.620Z,52.50
2018-04-14T14:21:41.187Z,50.57
2018-04-14T14:24:09.535Z,54.20
2018-04-14T14:26:37.855Z,54.30
2018-04-14T14:29:05.429Z,54.57
2018-04-14T14:31:33.019Z,50.80
2018-04-14T14:34:00.609Z,51.87
2018-04-14T14:36:28.170Z,50.37
2018-04-14T14:38:55.752Z,48.37
2018-04-14T14:41:23.336Z,50.00
2018-04-14T14:43:50.915Z,50.77
2018-04-14T14:46:19.252Z,50.13
2018-04-14T14:48:46.856Z,50.50
2018-04-14T14:51:14.419Z,48.30
2018-04-14T14:53:41.992Z,47.60
2018-04-14T14:56:09.556Z,49.10
2018-04-14T14:58:37.891Z,47.90
2018-04-14T15:01:06.219Z,49.10
2018-04-14T15:03:33.780Z,42.13
2018-04-14T15:06:01.351Z,43.70
2018-04-14T15:08:28.912Z,44.10
2018-04-14T15:10:56.484Z,43.20
2018-04-14T15:13:24.035Z,42.80
2018-04-14T15:15:52.372Z,38.23
2018-04-14T15:18:19.924Z,41.30
2018-04-14T15:20:47.507Z,39.43
2018-04-14T15:23:15.055Z,43.00
2018-04-14T15:25:42.691Z,38.43
2018-04-14T15:28:10.272Z,37.70
2018-04-14T15:30:37.855Z,38.53
2018-04-14T15:33:06.175Z,39.13
2018-04-14T15:35:34.516Z,40.00
2018-04-14T15:38:02.069Z,38.43
2018-04-14T15:40:30.412Z,36.27
2018-04-14T15:42:57.972Z,36.10
2018-04-14T15:45:26.314Z,37.80
2018-04-14T15:47:53.875Z,36.17
2018-04-14T15:50:21.459Z,36.67
2018-04-14T15:52:49.017Z,35.00
2018-04-14T15:55:16.598Z,35.20
2018-04-14T15:57:44.159Z,34.40
2018-04-14T16:00:11.728Z,35.57
2018-04-14T16:02:39.287Z,33.33
2018-04-14T16:05:06.886Z,32.80
2018-04-14T16:07:34.448Z,29.60
2018-04-14T16:10:02.048Z,28.57
2018-04-14T16:12:29.604Z,28.43
2018-04-14T16:14:57.942Z,28.20
2018-04-14T16:17:26.283Z,26.93
2018-04-14T16:19:53.856Z,23.53
2018-04-14T16:22:21.501Z,24.30
2018-04-14T16:24:49.716Z,24.47
2018-04-14T16:27:17.404Z,20.00
2018-04-14T16:29:44.960Z,10.70
2018-04-14T16:32:12.532Z,9.60
2018-04-14T16:34:40.084Z,8.70
2018-04-14T16:37:07.664Z,8.93
2018-04-14T16:39:35.229Z,9.70
2018-04-14T16:42:02.798Z,9.80
2018-04-14T16:44:30.354Z,10.70
2018-04-14T16:46:57.932Z,10.03
2018-04-14T16:49:25.538Z,10.20
2018-04-14T16:51:53.078Z,8.80
2018-04-14T16:54:20.635Z,7.30
2018-04-14T16:56:48.254Z,6.60
2018-04-14T16:59:15.816Z,5.20
2018-04-14T17:01:43.395Z,4.50
2018-04-14T17:04:10.948Z,4.10
2018-04-14T17:06:38.527Z,4.17
2018-04-14T17:09:06.075Z,3.73
2018-04-14T17:11:33.649Z,3.17
2018-04-14T17:14:01.198Z,3.17
2018-04-14T17:16:29.538Z,2.70
2018-04-14T17:18:57.091Z,3.40
2018-04-14T17:21:24.663Z,2.77
2018-04-14T17:23:52.220Z,2.60
2018-04-14T17:26:19.773Z,3.57
2018-04-14T17:28:48.112Z,2.80
2018-04-14T17:31:15.660Z,3.17
2018-04-14T17:33:43.236Z,2.80
2018-04-14T17:36:10.785Z,3.03
2018-04-14T17:38:39.128Z,2.60
2018-04-14T17:41:06.676Z,2.90
2018-04-14T17:43:34.244Z,2.93
2018-04-14T17:46:01.800Z,3.20
2018-04-14T17:48:29.369Z,3.43
2018-04-14T17:50:57.689Z,3.23
2018-04-14T17:53:25.474Z,3.20
2018-04-14T17:55:53.024Z,3.43
2018-04-14T17:58:20.597Z,3.60
2018-04-14T18:00:48.148Z,3.77
2018-04-14T18:03:15.715Z,4.73
2018-04-14T18:05:44.038Z,5.73
2018-04-14T18:08:11.608Z,3.60
2018-04-14T18:10:39.156Z,4.07
2018-04-14T18:13:07.493Z,5.03
2018-04-14T18:15:35.071Z,4.43
2018-04-14T18:18:02.791Z,4.57
2018-04-14T18:20:31.108Z,5.73
2018-04-14T18:22:58.682Z,4.13
2018-04-14T18:25:26.242Z,3.23
2018-04-14T18:27:53.819Z,4.00
2018-04-14T18:30:21.489Z,3.73
2018-04-14T18:32:49.067Z,2.90
2018-04-14T18:35:16.612Z,4.70
2018-04-14T18:37:44.187Z,3.40
2018-04-14T18:40:12.524Z,4.50
2018-04-14T18:42:40.077Z,5.17
2018-04-14T18:45:07.656Z,8.20
2018-04-14T18:47:35.208Z,7.23
2018-04-14T18:50:02.787Z,5.43
2018-04-14T18:52:30.340Z,4.37
2018-04-14T18:54:57.918Z,4.13
2018-04-14T18:57:25.464Z,4.80
2018-04-14T18:59:53.799Z,4.13
2018-04-14T19:02:21.363Z,3.63
2018-04-14T19:04:48.931Z,3.90
2018-04-14T19:07:16.480Z,4.20
2018-04-14T19:09:44.052Z,3.70
2018-04-14T19:12:12.377Z,3.90
2018-04-14T19:14:39.945Z,3.90
2018-04-14T19:17:07.487Z,4.87
2018-04-14T19:19:35.815Z,4.10
2018-04-14T19:22:03.367Z,6.30
2018-04-14T19:24:30.962Z,5.27
2018-04-14T19:26:58.572Z,5.00
2018-04-14T19:29:26.131Z,4.87
2018-04-14T19:31:53.700Z,4.90
2018-04-14T19:34:21.426Z,4.73
2018-04-14T19:36:49.242Z,4.43
2018-04-14T19:39:23.500Z,5.47
2018-04-14T19:41:51.702Z,5.50
2018-04-14T19:44:20.243Z,5.00
2018-04-14T19:46:48.643Z,5.13
2018-04-14T19:49:16.329Z,4.60
2018-04-14T19:51:44.796Z,5.10
2018-04-14T19:54:12.529Z,5.43
2018-04-14T19:56:40.342Z,4.93
2018-04-14T19:59:08.030Z,5.00
2018-04-14T20:01:35.666Z,4.10
2018-04-14T20:04:03.216Z,4.47
2018-04-14T20:06:31.554Z,3.43
2018-04-14T20:08:59.280Z,4.40
2018-04-14T20:11:27.783Z,4.57
2018-04-14T20:13:55.442Z,5.50
2018-04-14T20:16:23.790Z,5.30
2018-04-14T20:18:51.373Z,6.30
2018-04-14T20:21:18.931Z,5.77
2018-04-14T20:23:46.479Z,5.77
2018-04-14T20:26:14.039Z,6.00
2018-04-14T20:28:47.448Z,4.40
2018-04-14T20:31:15.020Z,5.07
2018-04-14T20:33:43.333Z,4.80
2018-04-14T20:36:10.926Z,5.97
2018-04-14T20:38:38.476Z,4.83
2018-04-14T20:41:06.075Z,6.80
2018-04-14T20:43:33.620Z,7.50
2018-04-14T20:46:01.169Z,6.80
2018-04-14T20:48:29.521Z,6.30
2018-04-14T20:50:57.067Z,6.50
2018-04-14T20:53:24.693Z,5.47
2018-04-14T20:55:53.039Z,6.60
2018-04-14T20:58:20.608Z,6.00
2018-04-14T21:00:48.152Z,6.50
2018-04-14T21:03:15.711Z,6.50
2018-04-14T21:05:44.018Z,5.30
2018-04-14T21:08:11.580Z,5.50
2018-04-14T21:10:39.127Z,6.07
2018-04-14T21:13:07.468Z,6.60
2018-04-14T21:15:35.012Z,6.33
2018-04-14T21:18:02.577Z,6.03
2018-04-14T21:20:30.125Z,4.30
2018-04-14T21:22:57.688Z,7.63
2018-04-14T21:25:25.267Z,7.10
2018-04-14T21:27:58.707Z,6.43
2018-04-14T21:30:27.512Z,8.30
2018-04-14T21:32:55.081Z,6.40
2018-04-14T21:35:22.631Z,6.20
2018-04-14T21:37:50.968Z,6.40
2018-04-14T21:40:18.704Z,5.93
2018-04-14T21:42:46.275Z,6.23
2018-04-14T21:45:14.599Z,6.50
2018-04-14T21:47:42.670Z,5.37
2018-04-14T21:50:10.212Z,4.50
2018-04-14T21:52:38.548Z,5.30
2018-04-14T21:55:06.089Z,5.90
2018-04-14T21:57:34.419Z,6.47
2018-04-14T22:00:01.997Z,5.97
2018-04-14T22:02:29.543Z,6.60
2018-04-14T22:04:57.174Z,4.63
2018-04-14T22:07:24.680Z,5.70
2018-04-14T22:09:52.249Z,6.13
2018-04-14T22:12:19.797Z,6.10
2018-04-14T22:14:48.132Z,7.00
2018-04-14T22:17:15.684Z,6.00
2018-04-14T22:19:43.253Z,4.70
2018-04-14T22:22:10.822Z,4.50
2018-04-14T22:24:38.392Z,5.80
2018-04-14T22:27:05.942Z,4.60
2018-04-14T22:29:38.222Z,4.77
2018-04-14T22:32:06.375Z,5.07
2018-04-14T22:34:38.851Z,5.60
2018-04-14T22:37:06.724Z,5.20
2018-04-14T22:39:38.011Z,2.60
2018-04-14T22:42:06.374Z,5.30
2018-04-14T22:44:33.942Z,5.47
2018-04-14T22:47:01.493Z,6.30
2018-04-14T22:49:29.066Z,5.70
2018-04-14T22:51:56.654Z,5.67
2018-04-14T22:54:24.236Z,6.73
2018-04-14T22:56:51.778Z,6.13
2018-04-14T22:59:19.358Z,5.77
2018-04-14T23:01:46.955Z,5.30
2018-04-14T23:04:14.520Z,5.67
2018-04-14T23:06:43.068Z,6.47
2018-04-14T23:09:16.921Z,6.00
2018-04-14T23:11:50.089Z,7.57
2018-04-14T23:14:18.745Z,7.13
2018-04-14T23:16:51.426Z,6.87
2018-04-14T23:19:19.751Z,6.57
2018-04-14T23:21:47.272Z,5.40
2018-04-14T23:24:14.855Z,7.03
2018-04-14T23:26:42.408Z,7.03
2018-04-14T23:29:09.985Z,6.80
2018-04-14T23:31:37.559Z,6.87
2018-04-14T23:34:05.112Z,6.67
2018-04-14T23:36:33.743Z,7.63
2018-04-14T23:39:01.336Z,7.00
2018-04-14T23:41:28.908Z,5.10
2018-04-14T23:43:56.465Z,7.30
2018-04-14T23:46:24.041Z,5.60
2018-04-14T23:48:51.583Z,5.27
2018-04-14T23:51:19.149Z,5.00
2018-04-14T23:53:46.708Z,5.93
2018-04-14T23:56:14.271Z,5.80
2018-04-14T23:58:42.588Z,4.43
